Iowa Center, Iowa
Current Conditions -  °F | °C
As of 3:15 AM on Friday 19 Dec 2014 (Local Time) from KIKV Reporting Station
Overcast Overcast  
Wind Chill: 27°   Ceiling: 1400
Heat Index: 27°   Visibility: 10mi
Dew Point: 25°   Wind: 3mph
Humidity: 93%   Direction: 130°SE
Pressure: 30.27"   Gusts: NA
Location:  41.8542°N, 93.4051°W
Report Text: KIKV 190915Z AUTO 13003KT 10SM BKN014 BKN023 OVC046 M03/M04 A3027 RMK AO2
Loading
Personal Weather Stations






























Interactive Weather Map New forecast layout! Learn more

10-Day Weather Forecast

Advertisements
Track Severe Weather on mobile